WXM80 ListenWXM80 Stop

You find our weather info also at:

UK Metoffice

WeatherCloud

Weather Underground

Northeastern Weather Network

AWEKAS

Citizen Weather Observer Program (CWOP)

HAMweather, WeatherForYou, PWS Weather


Weather Underground History page Text

Daily Summary for February 27, 2018 Units:  English    Metric   Both
« Previous Day
Next Day »
Daily Weekly Monthly Yearly Custom
  High: Low: Average:
Temperature: 56.8 °F 32.3 °F 43.8 °F
Dew Point: 32.3 °F 25.6 °F 29.4 °F
Humidity: 85 % 33 % 60 %
Wind Speed: 9.0 mph 0.0 mph 2.7 mph
Wind Gust: 15.0 mph - -
Wind:- - WSW
Pressure: 30.14 in 29.94 in -
Precipitation: 0.00 in    
Historical Graphs
 
 
Tabular Data for February 27, 2018
Time Temperature Dew Point Pressure Wind Wind Speed Wind Gust Humidity Rainfall Rate (Hourly)
00:03 36.9 °F 31.0 °F 30.00 in WSW 1.1 mph 2.3 mph 79 % 0.00 in
00:08 36.8 °F 30.9 °F 30.00 in Calm     79 % 0.00 in
00:13 36.7 °F 30.8 °F 30.01 in Calm   1.2 mph 79 % 0.00 in
00:18 36.6 °F 30.7 °F 30.01 in WSW 0.7 mph 2.3 mph 79 % 0.00 in
00:23 36.4 °F 30.5 °F 30.01 in WSW 0.3 mph 1.2 mph 79 % 0.00 in
00:29 36.2 °F 30.3 °F 30.01 in WSW 1.0 mph 2.3 mph 79 % 0.00 in
00:34 36.1 °F 30.2 °F 30.01 in WSW 1.5 mph 3.0 mph 79 % 0.00 in
00:39 35.9 °F 30.0 °F 30.01 in WSW 1.6 mph 2.3 mph 79 % 0.00 in
00:44 35.8 °F 29.9 °F 30.02 in WSW 1.0 mph 2.3 mph 79 % 0.00 in
00:49 35.7 °F 29.8 °F 30.02 in WSW 0.8 mph 2.3 mph 79 % 0.00 in
00:54 35.5 °F 29.6 °F 30.02 in WSW 1.9 mph 3.5 mph 79 % 0.00 in
00:59 35.4 °F 29.2 °F 30.02 in Calm     78 % 0.00 in
01:04 35.4 °F 29.2 °F 30.02 in WNW 2.8 mph 5.8 mph 78 % 0.00 in
01:09 35.4 °F 28.9 °F 30.02 in WNW 0.6 mph 1.2 mph 77 % 0.00 in
01:14 35.4 °F 28.9 °F 30.03 in Calm     77 % 0.00 in
01:19 35.5 °F 28.7 °F 30.03 in WNW 0.5 mph 1.2 mph 76 % 0.00 in
01:24 35.5 °F 28.4 °F 30.03 in WSW 1.5 mph 3.5 mph 75 % 0.00 in
01:29 35.6 °F 28.5 °F 30.04 in West 1.4 mph 3.5 mph 75 % 0.00 in
01:34 35.6 °F 28.5 °F 30.04 in Calm     75 % 0.00 in
01:39 35.7 °F 28.6 °F 30.04 in Calm     75 % 0.00 in
01:44 35.7 °F 28.9 °F 30.05 in West 1.7 mph 2.3 mph 76 % 0.00 in
01:49 35.6 °F 28.8 °F 30.05 in West 0.1 mph 2.3 mph 76 % 0.00 in
01:54 35.5 °F 28.7 °F 30.05 in West 0.3 mph 1.2 mph 76 % 0.00 in
01:59 35.3 °F 28.2 °F 30.05 in Calm   2.3 mph 75 % 0.00 in
02:05 35.3 °F 28.5 °F 30.05 in West 0.7 mph 3.5 mph 76 % 0.00 in
02:10 35.2 °F 28.7 °F 30.05 in West 1.2 mph 2.3 mph 77 % 0.00 in
02:15 35.1 °F 28.6 °F 30.05 in Calm   1.2 mph 77 % 0.00 in
02:20 35.0 °F 28.5 °F 30.05 in Calm     77 % 0.00 in
02:25 34.8 °F 28.6 °F 30.05 in Calm     78 % 0.00 in
02:30 34.6 °F 28.4 °F 30.05 in Calm     78 % 0.00 in
02:35 34.5 °F 28.3 °F 30.06 in West 0.1 mph 1.0 mph 78 % 0.00 in
02:40 34.2 °F 28.4 °F 30.06 in West 0.4 mph 1.2 mph 79 % 0.00 in
02:45 34.0 °F 28.2 °F 30.05 in West 1.4 mph 2.3 mph 79 % 0.00 in
02:50 33.8 °F 28.3 °F 30.05 in Calm     80 % 0.00 in
02:55 33.7 °F 28.2 °F 30.06 in Calm     80 % 0.00 in
03:00 33.6 °F 28.1 °F 30.06 in Calm     80 % 0.00 in
03:05 33.5 °F 28.0 °F 30.06 in Calm   1.2 mph 80 % 0.00 in
03:10 33.4 °F 27.9 °F 30.06 in Calm     80 % 0.00 in
03:15 33.3 °F 27.8 °F 30.06 in Calm     80 % 0.00 in
03:21 33.2 °F 27.7 °F 30.06 in Calm     80 % 0.00 in
03:26 33.1 °F 27.9 °F 30.06 in Calm   1.0 mph 81 % 0.00 in
03:31 33.0 °F 27.8 °F 30.06 in Calm     81 % 0.00 in
03:36 32.8 °F 27.6 °F 30.05 in West 0.1 mph 2.3 mph 81 % 0.00 in
03:41 32.7 °F 27.5 °F 30.06 in West 1.2 mph 2.3 mph 81 % 0.00 in
03:46 32.6 °F 27.7 °F 30.06 in West 1.3 mph 3.0 mph 82 % 0.00 in
03:51 32.5 °F 27.6 °F 30.06 in West 0.8 mph 2.3 mph 82 % 0.00 in
03:56 32.4 °F 27.8 °F 30.06 in West 0.5 mph 2.0 mph 83 % 0.00 in
04:01 32.3 °F 27.7 °F 30.06 in Calm     83 % 0.00 in
04:06 32.3 °F 27.7 °F 30.06 in Calm   1.2 mph 83 % 0.00 in
04:11 32.4 °F 27.8 °F 30.06 in Calm   1.2 mph 83 % 0.00 in
04:16 32.4 °F 27.8 °F 30.06 in West 0.4 mph 2.3 mph 83 % 0.00 in
04:22 32.4 °F 27.5 °F 30.06 in West 1.6 mph 3.5 mph 82 % 0.00 in
04:27 32.4 °F 27.5 °F 30.07 in West 1.4 mph 2.3 mph 82 % 0.00 in
04:32 32.5 °F 27.6 °F 30.06 in West 1.2 mph 3.5 mph 82 % 0.00 in
04:37 32.5 °F 27.3 °F 30.07 in West 1.7 mph 2.3 mph 81 % 0.00 in
04:42 32.5 °F 27.3 °F 30.07 in West 1.4 mph 3.5 mph 81 % 0.00 in
04:47 32.5 °F 27.0 °F 30.07 in West 1.1 mph 3.5 mph 80 % 0.00 in
04:52 32.5 °F 27.0 °F 30.07 in West 1.0 mph 2.3 mph 80 % 0.00 in
04:57 32.5 °F 27.0 °F 30.08 in West 1.9 mph 3.5 mph 80 % 0.00 in
05:02 32.5 °F 27.0 °F 30.08 in West 1.3 mph 2.3 mph 80 % 0.00 in
05:07 32.5 °F 27.0 °F 30.07 in WSW 1.6 mph 3.5 mph 80 % 0.00 in
05:12 32.5 °F 27.0 °F 30.07 in WSW 3.2 mph 6.9 mph 80 % 0.00 in
05:17 32.6 °F 27.1 °F 30.08 in WSW 2.6 mph 4.0 mph 80 % 0.00 in
05:22 32.6 °F 26.8 °F 30.08 in WSW 1.1 mph 2.3 mph 79 % 0.00 in
05:27 32.7 °F 27.2 °F 30.08 in WSW 2.0 mph 3.5 mph 80 % 0.00 in
05:32 32.7 °F 27.2 °F 30.08 in WSW 2.3 mph 3.5 mph 80 % 0.00 in
05:37 32.8 °F 27.3 °F 30.08 in WSW 2.3 mph 4.6 mph 80 % 0.00 in
05:42 32.8 °F 27.0 °F 30.08 in West 0.4 mph 2.0 mph 79 % 0.00 in
05:47 32.9 °F 27.1 °F 30.08 in West 2.3 mph 3.5 mph 79 % 0.00 in
05:52 33.0 °F 27.2 °F 30.08 in West 0.9 mph 2.3 mph 79 % 0.00 in
05:57 33.2 °F 27.4 °F 30.08 in SW 1.7 mph 4.0 mph 79 % 0.00 in
06:02 33.3 °F 27.5 °F 30.08 in WSW 1.3 mph 3.5 mph 79 % 0.00 in
06:07 33.4 °F 27.9 °F 30.09 in WSW 1.0 mph 1.2 mph 80 % 0.00 in
06:12 33.4 °F 27.9 °F 30.09 in WSW 1.1 mph 2.0 mph 80 % 0.00 in
06:18 33.4 °F 27.9 °F 30.09 in WSW 0.8 mph 2.3 mph 80 % 0.00 in
06:23 33.4 °F 28.2 °F 30.09 in SW 0.6 mph 2.3 mph 81 % 0.00 in
06:28 33.4 °F 28.2 °F 30.09 in SW 0.5 mph 2.3 mph 81 % 0.00 in
06:33 33.4 °F 28.2 °F 30.10 in Calm     81 % 0.00 in
06:38 33.4 °F 28.5 °F 30.10 in SW 0.6 mph 3.0 mph 82 % 0.00 in
06:43 33.3 °F 28.4 °F 30.10 in WSW 0.1 mph 2.3 mph 82 % 0.00 in
06:48 33.3 °F 28.7 °F 30.10 in Calm     83 % 0.00 in
06:53 33.3 °F 28.7 °F 30.10 in Calm   1.2 mph 83 % 0.00 in
06:58 33.4 °F 29.1 °F 30.10 in WSW 1.1 mph 2.3 mph 84 % 0.00 in
07:03 33.5 °F 29.2 °F 30.11 in WSW 1.4 mph 2.3 mph 84 % 0.00 in
07:08 33.7 °F 29.7 °F 30.11 in WSW 0.4 mph 2.3 mph 85 % 0.00 in
07:13 34.0 °F 30.0 °F 30.11 in WSW 0.2 mph 2.3 mph 85 % 0.00 in
07:18 34.3 °F 30.3 °F 30.12 in WSW 1.0 mph 2.0 mph 85 % 0.00 in
07:23 34.7 °F 30.7 °F 30.12 in WSW 0.2 mph 1.2 mph 85 % 0.00 in
07:28 35.1 °F 31.0 °F 30.12 in Calm   1.0 mph 85 % 0.00 in
07:34 35.5 °F 31.1 °F 30.12 in Calm   1.2 mph 84 % 0.00 in
07:39 35.9 °F 31.5 °F 30.12 in WSW 0.8 mph 2.3 mph 84 % 0.00 in
07:44 36.3 °F 31.6 °F 30.12 in WSW 0.5 mph 3.5 mph 83 % 0.00 in
07:49 36.7 °F 31.7 °F 30.12 in WSW 0.5 mph 2.3 mph 82 % 0.00 in
07:54 37.1 °F 31.5 °F 30.13 in West 3.3 mph 5.0 mph 80 % 0.00 in
07:59 37.5 °F 31.3 °F 30.13 in SSW 5.5 mph 6.9 mph 78 % 0.00 in
08:04 38.0 °F 31.4 °F 30.13 in West 2.5 mph 3.5 mph 77 % 0.00 in
08:09 38.6 °F 31.7 °F 30.13 in WSW 3.5 mph 5.8 mph 76 % 0.00 in
08:14 39.2 °F 31.3 °F 30.14 in WSW 0.8 mph 3.0 mph 73 % 0.00 in
08:19 39.8 °F 31.8 °F 30.14 in WSW 3.1 mph 4.6 mph 73 % 0.00 in
08:24 40.4 °F 32.1 °F 30.14 in West 3.7 mph 5.8 mph 72 % 0.00 in
08:29 41.0 °F 32.3 °F 30.13 in WSW 1.9 mph 3.5 mph 71 % 0.00 in
08:34 41.5 °F 32.1 °F 30.13 in SW 0.8 mph 4.0 mph 69 % 0.00 in
08:39 42.0 °F 31.5 °F 30.13 in WSW 0.8 mph 3.5 mph 66 % 0.00 in
08:44 42.4 °F 31.5 °F 30.13 in West 4.0 mph 5.8 mph 65 % 0.00 in
08:49 42.8 °F 31.5 °F 30.13 in WSW 4.9 mph 6.9 mph 64 % 0.00 in
08:54 43.2 °F 31.1 °F 30.14 in WSW 3.2 mph 4.6 mph 62 % 0.00 in
09:00 43.4 °F 30.8 °F 30.14 in West 1.1 mph 3.5 mph 61 % 0.00 in
09:05 43.6 °F 31.0 °F 30.14 in SW 0.1 mph 1.2 mph 61 % 0.00 in
09:10 44.0 °F 31.4 °F 30.14 in West 1.4 mph 3.5 mph 61 % 0.00 in
09:15 44.4 °F 30.5 °F 30.14 in WNW 1.6 mph 5.0 mph 58 % 0.00 in
09:20 44.7 °F 30.0 °F 30.14 in West 2.6 mph 4.6 mph 56 % 0.00 in
09:25 45.2 °F 30.4 °F 30.14 in West 0.8 mph 2.3 mph 56 % 0.00 in
09:30 45.8 °F 30.5 °F 30.14 in West 1.2 mph 3.5 mph 55 % 0.00 in
09:35 46.4 °F 29.7 °F 30.14 in West 1.6 mph 3.5 mph 52 % 0.00 in
09:40 46.6 °F 28.9 °F 30.14 in WSW 2.2 mph 4.6 mph 50 % 0.00 in
09:45 47.1 °F 30.4 °F 30.14 in NW 1.8 mph 4.0 mph 52 % 0.00 in
09:50 47.3 °F 29.1 °F 30.14 in WNW 2.0 mph 3.5 mph 49 % 0.00 in
09:55 47.6 °F 29.9 °F 30.14 in NW 1.5 mph 3.5 mph 50 % 0.00 in
10:00 48.1 °F 29.3 °F 30.14 in West 1.2 mph 3.5 mph 48 % 0.00 in
10:05 48.3 °F 29.0 °F 30.14 in WNW 1.6 mph 4.0 mph 47 % 0.00 in
10:10 48.6 °F 28.7 °F 30.14 in WNW 2.0 mph 4.6 mph 46 % 0.00 in
10:15 49.0 °F 29.6 °F 30.14 in NW 0.5 mph 2.0 mph 47 % 0.00 in
10:20 49.4 °F 30.0 °F 30.14 in NNW 1.4 mph 3.0 mph 47 % 0.00 in
10:25 49.9 °F 30.5 °F 30.13 in NW 3.0 mph 4.6 mph 47 % 0.00 in
10:30 50.3 °F 29.7 °F 30.13 in Calm   3.5 mph 45 % 0.00 in
10:35 50.8 °F 28.5 °F 30.13 in WNW 3.5 mph 3.5 mph 42 % 0.00 in
10:40 51.3 °F 31.2 °F 30.13 in NNW 0.9 mph 3.5 mph 46 % 0.00 in
10:45 51.7 °F 28.7 °F 30.13 in WNW 4.1 mph 5.0 mph 41 % 0.00 in
10:50 52.2 °F 30.9 °F 30.13 in WNW 0.7 mph 4.6 mph 44 % 0.00 in
10:55 52.4 °F 30.0 °F 30.13 in WSW 0.8 mph 3.5 mph 42 % 0.00 in
11:01 52.6 °F 26.4 °F 30.13 in WNW 2.9 mph 5.0 mph 36 % 0.00 in
11:06 52.6 °F 27.0 °F 30.13 in West 1.3 mph 4.6 mph 37 % 0.00 in
11:11 52.9 °F 28.0 °F 30.13 in SW 3.7 mph 4.6 mph 38 % 0.00 in
11:16 53.1 °F 28.8 °F 30.13 in WSW 1.7 mph 5.8 mph 39 % 0.00 in
11:21 53.4 °F 27.1 °F 30.13 in NW 3.2 mph 4.6 mph 36 % 0.00 in
11:26 53.5 °F 25.8 °F 30.13 in West 1.4 mph 3.5 mph 34 % 0.00 in
11:31 53.8 °F 27.4 °F 30.13 in WSW 4.5 mph 6.0 mph 36 % 0.00 in
11:36 54.0 °F 26.2 °F 30.13 in South 5.2 mph 6.9 mph 34 % 0.00 in
11:41 54.3 °F 27.9 °F 30.13 in WNW 1.8 mph 6.9 mph 36 % 0.00 in
11:46 54.5 °F 29.4 °F 30.13 in West 0.1 mph 4.6 mph 38 % 0.00 in
11:51 54.7 °F 28.9 °F 30.12 in WSW 6.7 mph 10.0 mph 37 % 0.00 in
11:56 54.5 °F 26.0 °F 30.12 in WSW 3.6 mph 9.0 mph 33 % 0.00 in
12:01 54.2 °F 26.4 °F 30.12 in SW 3.7 mph 7.0 mph 34 % 0.00 in
12:06 54.3 °F 27.2 °F 30.11 in NW 2.9 mph 5.8 mph 35 % 0.00 in
12:11 54.4 °F 27.3 °F 30.11 in WSW 2.6 mph 4.0 mph 35 % 0.00 in
12:16 54.5 °F 26.7 °F 30.11 in SW 5.3 mph 6.9 mph 34 % 0.00 in
12:21 54.3 °F 25.8 °F 30.11 in SW 6.0 mph 9.2 mph 33 % 0.00 in
12:26 54.1 °F 25.6 °F 30.10 in WSW 4.6 mph 6.9 mph 33 % 0.00 in
12:32 54.3 °F 25.8 °F 30.10 in SW 3.6 mph 8.1 mph 33 % 0.00 in
12:37 54.5 °F 26.7 °F 30.09 in WSW 3.7 mph 9.2 mph 34 % 0.00 in
12:42 54.7 °F 28.9 °F 30.09 in SSW 3.8 mph 6.9 mph 37 % 0.00 in
12:47 55.0 °F 28.5 °F 30.09 in SW 3.3 mph 9.2 mph 36 % 0.00 in
12:52 55.2 °F 28.0 °F 30.09 in SW 2.2 mph 7.0 mph 35 % 0.00 in
12:57 55.4 °F 28.9 °F 30.08 in WNW 3.1 mph 4.6 mph 36 % 0.00 in
13:02 55.7 °F 31.7 °F 30.08 in WSW 1.4 mph 7.0 mph 40 % 0.00 in
13:07 55.9 °F 30.0 °F 30.08 in West 1.3 mph 3.5 mph 37 % 0.00 in
13:12 56.0 °F 30.1 °F 30.08 in SW 4.6 mph 6.9 mph 37 % 0.00 in
13:17 56.1 °F 30.2 °F 30.08 in West 5.8 mph 7.0 mph 37 % 0.00 in
13:22 56.3 °F 31.6 °F 30.07 in SSW 2.6 mph 7.0 mph 39 % 0.00 in
13:27 56.4 °F 30.4 °F 30.07 in WNW 2.8 mph 4.0 mph 37 % 0.00 in
13:32 56.5 °F 30.5 °F 30.07 in WSW 6.3 mph 9.0 mph 37 % 0.00 in
13:37 56.5 °F 30.5 °F 30.06 in SSW 1.2 mph 3.5 mph 37 % 0.00 in
13:42 56.6 °F 29.9 °F 30.06 in West 2.6 mph 4.6 mph 36 % 0.00 in
13:47 56.6 °F 29.9 °F 30.06 in West 1.9 mph 5.8 mph 36 % 0.00 in
13:52 56.6 °F 29.9 °F 30.06 in SSW 1.5 mph 4.0 mph 36 % 0.00 in
13:57 56.6 °F 30.6 °F 30.06 in SW 0.4 mph 3.5 mph 37 % 0.00 in
14:02 56.8 °F 30.8 °F 30.05 in WSW 6.8 mph 9.2 mph 37 % 0.00 in
14:07 56.7 °F 30.0 °F 30.05 in WSW 5.7 mph 7.0 mph 36 % 0.00 in
14:12 56.7 °F 30.7 °F 30.05 in WNW 5.3 mph 8.0 mph 37 % 0.00 in
14:17 56.6 °F 29.9 °F 30.05 in West 4.5 mph 8.1 mph 36 % 0.00 in
14:22 56.6 °F 30.6 °F 30.04 in West 4.2 mph 9.2 mph 37 % 0.00 in
14:27 56.5 °F 29.8 °F 30.04 in SW 4.8 mph 5.8 mph 36 % 0.00 in
14:33 56.2 °F 29.6 °F 30.04 in WSW 7.4 mph 11.5 mph 36 % 0.00 in
14:38 56.0 °F 30.1 °F 30.04 in SW 3.4 mph 9.2 mph 37 % 0.00 in
14:43 55.9 °F 30.0 °F 30.03 in SW 5.9 mph 9.2 mph 37 % 0.00 in
14:48 55.9 °F 30.0 °F 30.03 in NW 3.9 mph 6.9 mph 37 % 0.00 in
14:53 55.7 °F 29.8 °F 30.03 in WSW 5.5 mph 8.1 mph 37 % 0.00 in
14:58 55.5 °F 29.0 °F 30.02 in SSW 4.0 mph 9.2 mph 36 % 0.00 in
15:03 55.4 °F 29.5 °F 30.02 in WNW 3.3 mph 4.0 mph 37 % 0.00 in
15:08 55.3 °F 29.4 °F 30.02 in SW 3.0 mph 5.0 mph 37 % 0.00 in
15:13 55.0 °F 29.2 °F 30.02 in West 1.9 mph 8.1 mph 37 % 0.00 in
15:18 54.8 °F 29.0 °F 30.02 in West 2.6 mph 3.5 mph 37 % 0.00 in
15:23 54.7 °F 29.6 °F 30.02 in SW 2.9 mph 8.1 mph 38 % 0.00 in
15:28 54.6 °F 29.5 °F 30.02 in SW 3.6 mph 5.8 mph 38 % 0.00 in
15:33 54.4 °F 29.3 °F 30.02 in SW 1.1 mph 4.6 mph 38 % 0.00 in
15:38 54.3 °F 29.2 °F 30.02 in SW 5.9 mph 8.1 mph 38 % 0.00 in
15:43 54.1 °F 29.0 °F 30.01 in WSW 5.7 mph 8.1 mph 38 % 0.00 in
15:49 54.0 °F 28.9 °F 30.01 in West 3.4 mph 6.9 mph 38 % 0.00 in
15:54 53.9 °F 28.8 °F 30.01 in West 6.0 mph 10.4 mph 38 % 0.00 in
15:59 53.9 °F 28.8 °F 30.00 in West 0.2 mph 2.0 mph 38 % 0.00 in
16:04 53.8 °F 29.4 °F 30.01 in WSW 1.0 mph 6.9 mph 39 % 0.00 in
16:09 53.7 °F 28.7 °F 30.00 in SSW 1.6 mph 4.6 mph 38 % 0.00 in
16:14 53.7 °F 28.7 °F 30.00 in WSW 3.1 mph 4.6 mph 38 % 0.00 in
16:19 53.6 °F 29.2 °F 30.00 in West 1.2 mph 3.5 mph 39 % 0.00 in
16:24 53.5 °F 29.1 °F 29.99 in West 4.1 mph 5.8 mph 39 % 0.00 in
16:29 53.4 °F 29.7 °F 29.99 in WSW 3.9 mph 5.8 mph 40 % 0.00 in
16:34 53.3 °F 29.6 °F 29.99 in WSW 1.8 mph 3.5 mph 40 % 0.00 in
16:39 53.2 °F 28.9 °F 29.99 in SW 2.8 mph 4.0 mph 39 % 0.00 in
16:44 53.1 °F 28.8 °F 29.99 in WSW 3.1 mph 3.5 mph 39 % 0.00 in
16:49 53.1 °F 29.4 °F 29.99 in SSW 3.1 mph 4.6 mph 40 % 0.00 in
16:54 53.0 °F 30.5 °F 29.99 in South 1.1 mph 3.5 mph 42 % 0.00 in
17:00 52.8 °F 30.3 °F 29.99 in South 2.3 mph 6.9 mph 42 % 0.00 in
17:05 52.6 °F 31.3 °F 30.00 in SSW 2.9 mph 5.8 mph 44 % 0.00 in
17:10 52.3 °F 31.0 °F 30.00 in SSW 1.9 mph 7.0 mph 44 % 0.00 in
17:15 52.0 °F 30.7 °F 29.99 in South 2.0 mph 6.9 mph 44 % 0.00 in
17:20 51.7 °F 31.0 °F 29.99 in South 3.8 mph 6.0 mph 45 % 0.00 in
17:25 51.3 °F 30.7 °F 30.00 in SSW 3.4 mph 5.0 mph 45 % 0.00 in
17:30 51.0 °F 30.4 °F 30.00 in SSW 3.3 mph 6.9 mph 45 % 0.00 in
17:35 50.8 °F 30.7 °F 30.00 in SSW 3.7 mph 5.8 mph 46 % 0.00 in
17:40 50.4 °F 30.4 °F 30.00 in South 4.7 mph 8.1 mph 46 % 0.00 in
17:45 50.0 °F 30.0 °F 30.00 in SSW 4.7 mph 8.1 mph 46 % 0.00 in
17:50 49.5 °F 29.6 °F 30.00 in South 2.0 mph 8.1 mph 46 % 0.00 in
17:55 49.0 °F 29.1 °F 30.00 in South 6.0 mph 8.0 mph 46 % 0.00 in
18:00 48.5 °F 29.2 °F 30.00 in SSW 4.0 mph 5.8 mph 47 % 0.00 in
18:05 48.0 °F 29.2 °F 30.00 in SSW 3.0 mph 3.5 mph 48 % 0.00 in
18:10 47.6 °F 28.9 °F 30.00 in South 4.2 mph 6.9 mph 48 % 0.00 in
18:15 47.2 °F 29.0 °F 30.00 in South 3.6 mph 6.9 mph 49 % 0.00 in
18:21 46.9 °F 28.7 °F 30.00 in South 5.0 mph 8.0 mph 49 % 0.00 in
18:26 46.5 °F 28.9 °F 29.99 in South 5.0 mph 10.0 mph 50 % 0.00 in
18:31 46.2 °F 28.5 °F 29.99 in South 5.0 mph 12.0 mph 50 % 0.00 in
18:36 45.9 °F 28.8 °F 30.00 in South 5.0 mph 13.0 mph 51 % 0.00 in
18:41 45.6 °F 29.0 °F 30.00 in South 5.0 mph 9.0 mph 52 % 0.00 in
18:46 45.4 °F 28.8 °F 30.00 in South 5.0 mph 15.0 mph 52 % 0.00 in
18:51 45.2 °F 29.1 °F 29.99 in SSW 7.0 mph 10.0 mph 53 % 0.00 in
18:56 45.0 °F 29.3 °F 29.99 in SSW 7.0 mph 13.0 mph 54 % 0.00 in
19:01 44.7 °F 29.1 °F 29.99 in South 5.6 mph 10.4 mph 54 % 0.00 in
19:06 44.5 °F 28.9 °F 29.99 in South 5.4 mph 11.5 mph 54 % 0.00 in
19:11 44.3 °F 28.7 °F 29.99 in SW 8.8 mph 13.8 mph 54 % 0.00 in
19:16 44.2 °F 29.0 °F 29.99 in SSE 5.1 mph 7.0 mph 55 % 0.00 in
19:21 44.0 °F 28.9 °F 30.00 in SSW 7.6 mph 11.5 mph 55 % 0.00 in
19:26 43.9 °F 28.8 °F 29.99 in SSW 5.4 mph 9.2 mph 55 % 0.00 in
19:31 43.8 °F 28.7 °F 29.99 in South 6.2 mph 11.0 mph 55 % 0.00 in
19:36 43.7 °F 28.6 °F 29.99 in South 9.0 mph 13.8 mph 55 % 0.00 in
19:41 43.6 °F 28.5 °F 29.99 in SSW 6.8 mph 12.7 mph 55 % 0.00 in
19:46 43.6 °F 28.5 °F 29.99 in SSW 6.4 mph 8.1 mph 55 % 0.00 in
19:51 43.6 °F 28.9 °F 29.99 in South 5.7 mph 8.1 mph 56 % 0.00 in
19:56 43.6 °F 28.9 °F 29.99 in South 6.6 mph 11.5 mph 56 % 0.00 in
20:01 43.5 °F 28.8 °F 29.99 in South 4.6 mph 11.5 mph 56 % 0.00 in
20:06 43.4 °F 29.2 °F 29.99 in SSW 3.3 mph 7.0 mph 57 % 0.00 in
20:11 43.4 °F 29.2 °F 29.99 in South 3.1 mph 8.1 mph 57 % 0.00 in
20:16 43.3 °F 29.5 °F 29.99 in SSW 4.5 mph 6.9 mph 58 % 0.00 in
20:22 43.2 °F 29.4 °F 29.99 in South 4.9 mph 9.2 mph 58 % 0.00 in
20:27 43.1 °F 29.7 °F 29.99 in SSW 2.8 mph 8.1 mph 59 % 0.00 in
20:32 43.1 °F 29.7 °F 29.99 in South 4.1 mph 6.0 mph 59 % 0.00 in
20:37 43.0 °F 30.1 °F 29.99 in SSW 6.4 mph 10.4 mph 60 % 0.00 in
20:42 43.0 °F 30.1 °F 29.99 in SSW 3.6 mph 5.8 mph 60 % 0.00 in
20:47 42.9 °F 30.4 °F 29.99 in SSW 4.6 mph 6.9 mph 61 % 0.00 in
20:52 43.0 °F 30.5 °F 29.99 in SSW 3.1 mph 6.9 mph 61 % 0.00 in
20:57 42.9 °F 30.4 °F 29.99 in South 4.4 mph 8.1 mph 61 % 0.00 in
21:02 42.9 °F 30.8 °F 29.99 in South 3.5 mph 5.8 mph 62 % 0.00 in
21:07 42.8 °F 30.7 °F 29.98 in SSE 5.8 mph 10.4 mph 62 % 0.00 in
21:08 42.9 °F 30.8 °F 29.98 in South 2.9 mph 6.0 mph 62 % 0.00 in
21:13 42.8 °F 30.7 °F 29.98 in SSW 5.5 mph 9.2 mph 62 % 0.00 in
21:18 42.7 °F 31.0 °F 29.98 in SSW 3.7 mph 9.2 mph 63 % 0.00 in
21:23 42.7 °F 31.0 °F 29.98 in SSW 4.9 mph 6.9 mph 63 % 0.00 in
21:28 42.6 °F 31.3 °F 29.97 in SW 3.4 mph 10.0 mph 64 % 0.00 in
21:33 42.6 °F 31.3 °F 29.97 in South 3.6 mph 5.8 mph 64 % 0.00 in
21:39 42.5 °F 31.2 °F 29.97 in South 4.5 mph 9.2 mph 64 % 0.00 in
21:44 42.5 °F 31.6 °F 29.97 in SSW 3.8 mph 6.9 mph 65 % 0.00 in
21:49 42.5 °F 31.6 °F 29.97 in South 2.7 mph 6.9 mph 65 % 0.00 in
21:54 42.4 °F 31.5 °F 29.96 in SSW 5.2 mph 8.1 mph 65 % 0.00 in
21:59 42.4 °F 31.8 °F 29.96 in SSW 2.3 mph 6.0 mph 66 % 0.00 in
22:04 42.3 °F 31.7 °F 29.96 in South 5.8 mph 8.1 mph 66 % 0.00 in
22:09 42.2 °F 31.6 °F 29.96 in SSW 1.8 mph 5.8 mph 66 % 0.00 in
22:14 42.2 °F 31.6 °F 29.95 in SSE 3.0 mph 6.9 mph 66 % 0.00 in
22:19 42.1 °F 31.9 °F 29.95 in SW 3.8 mph 4.6 mph 67 % 0.00 in
22:24 42.0 °F 31.8 °F 29.95 in SSW 4.7 mph 8.1 mph 67 % 0.00 in
22:29 42.0 °F 31.8 °F 29.95 in SSW 4.9 mph 6.0 mph 67 % 0.00 in
22:34 42.0 °F 31.8 °F 29.95 in South 4.9 mph 9.2 mph 67 % 0.00 in
22:39 42.0 °F 32.2 °F 29.95 in SSW 5.8 mph 7.0 mph 68 % 0.00 in
22:44 42.0 °F 32.2 °F 29.95 in South 4.1 mph 6.9 mph 68 % 0.00 in
22:49 41.9 °F 32.1 °F 29.95 in SSW 4.2 mph 7.0 mph 68 % 0.00 in
22:54 42.0 °F 32.2 °F 29.94 in South 4.7 mph 8.0 mph 68 % 0.00 in
22:59 42.0 °F 32.2 °F 29.95 in South 5.6 mph 6.9 mph 68 % 0.00 in
23:04 42.0 °F 31.8 °F 29.94 in WSW 2.6 mph 10.4 mph 67 % 0.00 in
23:10 42.0 °F 31.8 °F 29.95 in South 2.2 mph 5.8 mph 67 % 0.00 in
23:15 42.0 °F 31.8 °F 29.94 in SW 1.5 mph 3.5 mph 67 % 0.00 in
23:20 41.9 °F 31.7 °F 29.95 in SW 4.1 mph 5.8 mph 67 % 0.00 in
23:25 41.9 °F 31.7 °F 29.94 in SSW 5.7 mph 6.9 mph 67 % 0.00 in
23:30 41.9 °F 31.7 °F 29.94 in SSW 3.0 mph 6.9 mph 67 % 0.00 in
23:35 41.9 °F 31.7 °F 29.95 in SSW 3.2 mph 6.9 mph 67 % 0.00 in
23:40 41.9 °F 31.7 °F 29.94 in SSW 0.8 mph 6.0 mph 67 % 0.00 in
23:45 41.9 °F 31.7 °F 29.94 in SSW 4.3 mph 8.1 mph 67 % 0.00 in
23:50 42.0 °F 31.8 °F 29.94 in South 3.9 mph 9.0 mph 67 % 0.00 in
23:55 42.0 °F 31.8 °F 29.94 in SSW 3.6 mph 5.8 mph 67 % 0.00 in
Crab Meadow Weather
Compliments of Weather Underground - 3 mb

Script developed by  Jim McMurry - jmcmurry@mwt.net Adapted for the template by  Wim van der Kuil - Leuven-Template.eu

Weather Terms: Wind Advisory - Sustained winds of 30 mph or greater or gusts to 45 mph or greater for a duration of one hour or longer.